Time;durP1;ratioP1;P1;durP2;ratioP2;P2;SDS_P1;SDS_P2;PMS_P1;PMS_P2;Temp;Humidity;BMP_temperature;BMP_pressure;BME280_temperature;BME280_humidity;BME280_pressure;Samples;Min_cycle;Max_cycle;Signal;HPM_P1;HPM_P2
2022/11/30 00:00:55;;;;;;;15.30;11.88;;;;;;;;;;4950899;28;20500;-73
2022/11/30 00:03:23;;;;;;;18.58;12.40;;;;;;;;;;4949275;28;20039;-74
2022/11/30 00:05:49;;;;;;;12.93;11.18;;;;;;;;;;4968551;28;20023;-74
2022/11/30 00:08:17;;;;;;;15.80;11.00;;;;;;;;;;4968309;28;20097;-73
2022/11/30 00:10:45;;;;;;;13.93;11.43;;;;;;;;;;4950706;28;20027;-73
2022/11/30 00:13:11;;;;;;;15.27;12.60;;;;;;;;;;4951506;28;20046;-74
2022/11/30 00:15:37;;;;;;;15.00;10.82;;;;;;;;;;4951186;29;20027;-73
2022/11/30 00:18:03;;;;;;;16.20;10.60;;;;;;;;;;4947585;28;20031;-73
2022/11/30 00:20:34;;;;;;;16.25;10.85;;;;;;;;;;4948403;28;20478;-73
2022/11/30 00:23:03;;;;;;;18.85;10.27;;;;;;;;;;4925373;29;20032;-73
2022/11/30 00:25:31;;;;;;;17.63;13.75;;;;;;;;;;4950261;28;20425;-74
2022/11/30 00:28:00;;;;;;;18.77;12.27;;;;;;;;;;4954003;28;20393;-73
2022/11/30 00:30:31;;;;;;;17.88;11.80;;;;;;;;;;4944923;28;20042;-73
2022/11/30 00:32:59;;;;;;;21.60;12.00;;;;;;;;;;4968574;28;20038;-73
2022/11/30 00:35:30;;;;;;;14.23;10.93;;;;;;;;;;4951237;28;20035;-73
2022/11/30 00:37:56;;;;;;;17.02;13.23;;;;;;;;;;4953120;28;20035;-73
2022/11/30 00:40:27;;;;;;;25.95;15.60;;;;;;;;;;4947252;28;20031;-73
2022/11/30 00:42:55;;;;;;;17.80;12.23;;;;;;;;;;4951005;28;20031;-73
2022/11/30 00:45:23;;;;;;;19.60;12.85;;;;;;;;;;4964469;28;20024;-73
2022/11/30 00:47:51;;;;;;;20.17;13.13;;;;;;;;;;4950059;28;20035;-73
2022/11/30 00:50:20;;;;;;;19.65;12.13;;;;;;;;;;4947037;29;20031;-73
2022/11/30 00:52:50;;;;;;;16.45;12.80;;;;;;;;;;4950199;28;20039;-73
2022/11/30 00:55:16;;;;;;;14.55;11.32;;;;;;;;;;4966906;28;20035;-73
2022/11/30 00:57:42;;;;;;;16.13;11.73;;;;;;;;;;4947568;28;20442;-73
2022/11/30 01:00:08;;;;;;;18.02;11.93;;;;;;;;;;4953975;29;20532;-73
2022/11/30 01:02:36;;;;;;;14.77;10.73;;;;;;;;;;4951412;28;20048;-73
2022/11/30 01:05:02;;;;;;;20.40;14.00;;;;;;;;;;4952200;28;20413;-73
2022/11/30 01:07:31;;;;;;;15.63;12.38;;;;;;;;;;4951675;28;20031;-74
2022/11/30 01:09:57;;;;;;;11.63;10.18;;;;;;;;;;4967636;28;20034;-73
2022/11/30 01:12:23;;;;;;;13.25;11.38;;;;;;;;;;4951046;28;20036;-73
2022/11/30 01:14:49;;;;;;;17.90;14.25;;;;;;;;;;4952459;28;20031;-73
2022/11/30 01:17:15;;;;;;;16.98;13.88;;;;;;;;;;4934544;28;20055;-73
2022/11/30 01:19:40;;;;;;;15.88;11.80;;;;;;;;;;4952415;28;20086;-73
2022/11/30 01:22:06;;;;;;;17.40;13.13;;;;;;;;;;4930975;29;20136;-73
2022/11/30 01:24:32;;;;;;;16.73;12.30;;;;;;;;;;4949936;28;20031;-73
2022/11/30 01:26:58;;;;;;;17.95;13.38;;;;;;;;;;4916808;29;20031;-73
2022/11/30 01:29:27;;;;;;;17.98;12.25;;;;;;;;;;4960737;23;20671;-76
2022/11/30 01:31:53;;;;;;;17.10;13.38;;;;;;;;;;4934988;29;20194;-76
2022/11/30 01:34:19;;;;;;;13.40;10.25;;;;;;;;;;4944165;28;20041;-76
2022/11/30 01:36:47;;;;;;;15.88;13.00;;;;;;;;;;4960830;28;20027;-76
2022/11/30 01:39:15;;;;;;;15.07;11.38;;;;;;;;;;4947398;28;20031;-76
2022/11/30 01:41:43;;;;;;;17.75;13.05;;;;;;;;;;4932508;29;20557;-76
2022/11/30 01:44:15;;;;;;;13.95;10.52;;;;;;;;;;4950818;28;20027;-76
2022/11/30 01:47:00;;;;;;;16.00;11.80;;;;;;;;;;4952918;28;20023;-76
2022/11/30 01:49:28;;;;;;;18.42;13.30;;;;;;;;;;4951801;28;20091;-76
2022/11/30 01:52:01;;;;;;;16.92;11.35;;;;;;;;;;4948734;29;20631;-76
2022/11/30 01:54:34;;;;;;;13.93;10.87;;;;;;;;;;4950211;28;20031;-76
2022/11/30 01:57:08;;;;;;;16.92;11.77;;;;;;;;;;4942734;28;20043;-76
2022/11/30 01:59:36;;;;;;;16.23;10.45;;;;;;;;;;4950624;29;20027;-76
2022/11/30 02:02:03;;;;;;;16.67;11.82;;;;;;;;;;4947154;28;20019;-76
2022/11/30 02:04:31;;;;;;;14.18;10.65;;;;;;;;;;4931981;29;20533;-76
2022/11/30 02:06:58;;;;;;;22.98;14.50;;;;;;;;;;4944461;28;20512;-76
2022/11/30 02:09:24;;;;;;;16.70;11.77;;;;;;;;;;4946765;29;20031;-76
2022/11/30 02:11:50;;;;;;;18.52;12.75;;;;;;;;;;4951409;28;20035;-76
2022/11/30 02:14:30;;;;;;;15.43;11.82;;;;;;;;;;4951423;29;20035;-76
2022/11/30 02:17:11;;;;;;;13.70;11.05;;;;;;;;;;4947857;28;20039;-76
2022/11/30 02:19:37;;;;;;;18.80;11.90;;;;;;;;;;4948366;28;20031;-76
2022/11/30 02:22:28;;;;;;;13.13;11.02;;;;;;;;;;4951734;28;20477;-76
2022/11/30 02:25:20;;;;;;;18.70;12.43;;;;;;;;;;4964408;28;20035;-76
2022/11/30 02:27:49;;;;;;;17.20;11.85;;;;;;;;;;4932976;28;20043;-76
2022/11/30 02:30:15;;;;;;;20.13;11.32;;;;;;;;;;4953333;29;20035;-76
2022/11/30 02:32:49;;;;;;;15.23;11.32;;;;;;;;;;4954778;28;20031;-76
2022/11/30 02:35:17;;;;;;;16.08;13.27;;;;;;;;;;4952337;28;20039;-76
2022/11/30 02:37:44;;;;;;;17.52;11.80;;;;;;;;;;4952866;28;20035;-76
2022/11/30 02:40:13;;;;;;;18.98;10.93;;;;;;;;;;4960035;28;20023;-75
2022/11/30 02:42:39;;;;;;;16.33;11.90;;;;;;;;;;4953963;28;20038;-76
2022/11/30 02:45:08;;;;;;;14.00;10.63;;;;;;;;;;4956544;29;20027;-76
2022/11/30 02:47:34;;;;;;;18.67;13.38;;;;;;;;;;4954895;28;20061;-76
2022/11/30 02:50:03;;;;;;;28.65;12.75;;;;;;;;;;4956634;29;20051;-76
2022/11/30 02:52:30;;;;;;;16.48;13.38;;;;;;;;;;4935595;29;20035;-76
2022/11/30 02:55:03;;;;;;;16.83;12.93;;;;;;;;;;4953000;29;20038;-76
2022/11/30 02:57:29;;;;;;;21.55;14.98;;;;;;;;;;4944246;28;20038;-75
2022/11/30 02:59:55;;;;;;;15.80;13.48;;;;;;;;;;4953528;29;20027;-76
2022/11/30 03:02:23;;;;;;;14.95;11.95;;;;;;;;;;4951945;28;20031;-76
2022/11/30 03:04:49;;;;;;;15.73;11.75;;;;;;;;;;4954363;29;20035;-76
2022/11/30 03:07:15;;;;;;;15.13;12.10;;;;;;;;;;4953225;28;20038;-76
2022/11/30 03:09:41;;;;;;;17.58;12.48;;;;;;;;;;4953377;29;20027;-76
2022/11/30 03:12:09;;;;;;;16.00;12.85;;;;;;;;;;4949559;28;20390;-76
2022/11/30 03:14:35;;;;;;;16.17;14.30;;;;;;;;;;4955286;29;20044;-76
2022/11/30 03:17:00;;;;;;;27.35;12.82;;;;;;;;;;4950857;28;20035;-76
2022/11/30 03:19:26;;;;;;;19.73;13.73;;;;;;;;;;4959506;28;20037;-76
2022/11/30 03:21:52;;;;;;;17.83;12.55;;;;;;;;;;4955952;28;20032;-76
2022/11/30 03:24:18;;;;;;;18.40;13.60;;;;;;;;;;4951593;28;20027;-76
2022/11/30 03:26:44;;;;;;;14.18;11.75;;;;;;;;;;4954610;29;20554;-76
2022/11/30 03:29:12;;;;;;;16.33;12.60;;;;;;;;;;4950715;28;20490;-76
2022/11/30 03:31:38;;;;;;;16.77;11.15;;;;;;;;;;4953408;29;20035;-76
2022/11/30 03:34:04;;;;;;;18.20;12.35;;;;;;;;;;4952736;29;20234;-75
2022/11/30 03:36:30;;;;;;;14.63;11.70;;;;;;;;;;4951982;28;20094;-76
2022/11/30 03:38:55;;;;;;;28.00;13.00;;;;;;;;;;4952754;28;20482;-76
2022/11/30 03:41:24;;;;;;;20.60;11.85;;;;;;;;;;4954771;28;20023;-76
2022/11/30 03:43:52;;;;;;;15.98;11.52;;;;;;;;;;4958643;28;20031;-76
2022/11/30 03:46:18;;;;;;;19.00;13.40;;;;;;;;;;4952895;29;20082;-76
2022/11/30 03:48:44;;;;;;;13.10;10.77;;;;;;;;;;4950286;28;20483;-76
2022/11/30 03:51:12;;;;;;;16.48;12.48;;;;;;;;;;4951596;28;20426;-76
2022/11/30 03:53:40;;;;;;;22.40;12.00;;;;;;;;;;4954217;29;20038;-76
2022/11/30 03:56:09;;;;;;;14.68;10.75;;;;;;;;;;4952763;28;20031;-76
2022/11/30 03:58:38;;;;;;;14.00;12.30;;;;;;;;;;4933948;29;20040;-76
2022/11/30 04:01:05;;;;;;;22.77;13.18;;;;;;;;;;4948888;28;20034;-76
2022/11/30 04:03:31;;;;;;;17.05;11.77;;;;;;;;;;4951598;29;20038;-76
2022/11/30 04:05:57;;;;;;;19.38;12.05;;;;;;;;;;4953049;28;20035;-76
2022/11/30 04:08:26;;;;;;;13.65;11.20;;;;;;;;;;4950781;29;20035;-76
2022/11/30 04:10:52;;;;;;;16.00;11.95;;;;;;;;;;4948836;28;20035;-76
2022/11/30 04:13:19;;;;;;;14.52;10.77;;;;;;;;;;4918784;29;20039;-76
2022/11/30 04:15:50;;;;;;;16.25;11.57;;;;;;;;;;4949417;28;20498;-76
2022/11/30 04:18:17;;;;;;;14.52;11.68;;;;;;;;;;4952567;29;20034;-76
2022/11/30 04:20:43;;;;;;;15.30;11.68;;;;;;;;;;4966349;28;20023;-76
2022/11/30 04:23:12;;;;;;;16.90;11.70;;;;;;;;;;4948202;29;20027;-76
2022/11/30 04:25:38;;;;;;;13.55;12.13;;;;;;;;;;4950309;28;20489;-76
2022/11/30 04:28:04;;;;;;;20.98;13.88;;;;;;;;;;4954768;28;20054;-75
2022/11/30 04:30:33;;;;;;;25.33;19.13;;;;;;;;;;4955846;28;20039;-75
2022/11/30 04:32:59;;;;;;;27.38;18.00;;;;;;;;;;4952739;29;20401;-75
2022/11/30 04:35:27;;;;;;;26.73;19.60;;;;;;;;;;4951669;28;20035;-77
2022/11/30 04:37:52;;;;;;;25.80;16.83;;;;;;;;;;4948502;28;20035;-75
2022/11/30 04:40:18;;;;;;;29.20;18.45;;;;;;;;;;4944595;28;20027;-75
2022/11/30 04:42:44;;;;;;;27.58;18.80;;;;;;;;;;4951725;29;20090;-77
2022/11/30 04:45:10;;;;;;;33.40;22.25;;;;;;;;;;4947567;28;20103;-77
2022/11/30 04:47:38;;;;;;;33.63;21.05;;;;;;;;;;4949663;28;20114;-77
2022/11/30 04:50:05;;;;;;;43.65;23.40;;;;;;;;;;4951559;28;20027;-77
2022/11/30 04:52:31;;;;;;;29.33;20.88;;;;;;;;;;4953538;28;20031;-77
2022/11/30 04:54:57;;;;;;;27.35;19.65;;;;;;;;;;4951494;28;20070;-77
2022/11/30 04:57:23;;;;;;;27.60;18.80;;;;;;;;;;4949629;29;20038;-77
2022/11/30 04:59:49;;;;;;;26.00;17.52;;;;;;;;;;4934572;28;20042;-77
2022/11/30 05:02:14;;;;;;;29.13;19.15;;;;;;;;;;4948114;28;20037;-74
2022/11/30 05:04:40;;;;;;;29.92;19.33;;;;;;;;;;4952154;29;20470;-74
2022/11/30 05:07:11;;;;;;;25.33;16.60;;;;;;;;;;4952011;28;20482;-77
2022/11/30 05:09:37;;;;;;;25.48;18.15;;;;;;;;;;4945026;29;20055;-77
2022/11/30 05:12:03;;;;;;;22.13;14.98;;;;;;;;;;4947682;28;20490;-74
2022/11/30 05:14:29;;;;;;;22.10;18.27;;;;;;;;;;4953616;28;20031;-76
2022/11/30 05:16:54;;;;;;;34.17;17.92;;;;;;;;;;4950297;28;20375;-76
2022/11/30 05:19:20;;;;;;;22.65;18.73;;;;;;;;;;4950143;29;20502;-76
2022/11/30 05:21:46;;;;;;;23.83;16.17;;;;;;;;;;4949061;28;20038;-76
2022/11/30 05:24:16;;;;;;;22.45;17.45;;;;;;;;;;4954076;29;20027;-76
2022/11/30 05:26:44;;;;;;;26.50;16.80;;;;;;;;;;4949512;28;20095;-76
2022/11/30 05:29:10;;;;;;;24.30;19.15;;;;;;;;;;4952222;29;20520;-76
2022/11/30 05:31:39;;;;;;;25.17;15.77;;;;;;;;;;4952016;28;20035;-76
2022/11/30 05:34:05;;;;;;;22.50;16.90;;;;;;;;;;4973297;28;20062;-75
2022/11/30 05:36:34;;;;;;;23.20;16.30;;;;;;;;;;4947740;29;20035;-76
2022/11/30 05:38:59;;;;;;;24.63;16.83;;;;;;;;;;4951915;29;20038;-76
2022/11/30 05:41:25;;;;;;;24.90;17.55;;;;;;;;;;4953089;28;20023;-76
2022/11/30 05:43:51;;;;;;;27.20;17.10;;;;;;;;;;4961624;28;20039;-76
2022/11/30 05:46:22;;;;;;;23.27;17.35;;;;;;;;;;4952583;29;20046;-76
2022/11/30 05:48:50;;;;;;;18.77;14.07;;;;;;;;;;4949085;28;20027;-76
2022/11/30 05:51:17;;;;;;;25.25;17.27;;;;;;;;;;4955669;28;20054;-76
2022/11/30 05:53:46;;;;;;;21.40;16.88;;;;;;;;;;4952583;29;20394;-76
2022/11/30 05:56:21;;;;;;;22.90;14.82;;;;;;;;;;4952406;29;20028;-76
2022/11/30 05:58:52;;;;;;;26.40;14.45;;;;;;;;;;4948304;28;20036;-76
2022/11/30 06:01:21;;;;;;;20.20;16.33;;;;;;;;;;4945354;29;20032;-76
2022/11/30 06:03:49;;;;;;;19.67;15.95;;;;;;;;;;4956193;28;20032;-76
2022/11/30 06:06:20;;;;;;;21.30;14.35;;;;;;;;;;4948776;29;21405;-76
2022/11/30 06:08:53;;;;;;;22.58;16.15;;;;;;;;;;4939195;29;20031;-76
2022/11/30 06:11:21;;;;;;;19.13;15.60;;;;;;;;;;4939591;28;20039;-76
2022/11/30 06:13:49;;;;;;;14.98;13.00;;;;;;;;;;4940007;28;20039;-76
2022/11/30 06:16:15;;;;;;;25.13;16.27;;;;;;;;;;4938200;29;20320;-76
2022/11/30 06:18:41;;;;;;;19.15;15.57;;;;;;;;;;4938242;28;20031;-75
2022/11/30 06:21:11;;;;;;;21.92;15.40;;;;;;;;;;4959886;28;20027;-75
2022/11/30 06:23:37;;;;;;;17.88;14.23;;;;;;;;;;4971922;28;20023;-75
2022/11/30 06:26:07;;;;;;;21.02;16.98;;;;;;;;;;4948206;29;20039;-75
2022/11/30 06:28:35;;;;;;;20.80;15.20;;;;;;;;;;4937812;29;20039;-76
2022/11/30 06:31:06;;;;;;;26.65;15.32;;;;;;;;;;4951209;28;20299;-76
2022/11/30 06:33:35;;;;;;;17.30;15.30;;;;;;;;;;4970422;28;20037;-75
2022/11/30 06:36:08;;;;;;;25.92;15.68;;;;;;;;;;4944780;29;20047;-75
2022/11/30 06:38:36;;;;;;;21.90;14.95;;;;;;;;;;4939867;29;20039;-75
2022/11/30 06:41:07;;;;;;;21.83;16.92;;;;;;;;;;4947099;28;20026;-74
2022/11/30 06:43:37;;;;;;;19.08;14.85;;;;;;;;;;4942006;28;21754;-75
2022/11/30 06:46:05;;;;;;;20.92;14.98;;;;;;;;;;4939497;28;20418;-75
2022/11/30 06:48:36;;;;;;;21.35;14.52;;;;;;;;;;4930764;28;20035;-76
2022/11/30 06:51:08;;;;;;;19.45;13.75;;;;;;;;;;4939233;29;20042;-75
2022/11/30 06:53:37;;;;;;;24.05;16.40;;;;;;;;;;4941823;29;20035;-75
2022/11/30 06:56:08;;;;;;;21.10;13.05;;;;;;;;;;4922538;29;20054;-75
2022/11/30 06:58:34;;;;;;;24.73;15.07;;;;;;;;;;4948195;28;20039;-75
2022/11/30 07:01:03;;;;;;;24.08;15.20;;;;;;;;;;4939024;28;20046;-75
2022/11/30 07:03:28;;;;;;;25.13;16.38;;;;;;;;;;4943736;28;20501;-75
2022/11/30 07:05:57;;;;;;;30.73;16.38;;;;;;;;;;4950596;29;20505;-75
2022/11/30 07:08:25;;;;;;;21.92;14.68;;;;;;;;;;4953834;28;20114;-75
2022/11/30 07:10:53;;;;;;;24.77;15.35;;;;;;;;;;4953241;28;20038;-75
2022/11/30 07:13:19;;;;;;;18.92;13.98;;;;;;;;;;4950418;29;20042;-76
2022/11/30 07:15:52;;;;;;;20.83;16.95;;;;;;;;;;4953662;29;20039;-76
2022/11/30 07:18:20;;;;;;;26.00;18.50;;;;;;;;;;4954013;28;20047;-75
2022/11/30 07:20:46;;;;;;;19.77;15.75;;;;;;;;;;4960710;28;20027;-75
2022/11/30 07:26:09;;;;;;;21.02;15.77;;;;;;;;;;4942584;28;20054;-76
2022/11/30 07:28:38;;;;;;;24.27;16.58;;;;;;;;;;4952649;28;20035;-75
2022/11/30 07:31:13;;;;;;;22.05;14.68;;;;;;;;;;4941933;29;20050;-76
2022/11/30 07:33:42;;;;;;;20.87;16.03;;;;;;;;;;4951337;28;20050;-75
2022/11/30 07:36:10;;;;;;;20.67;15.90;;;;;;;;;;4941768;29;20027;-74
2022/11/30 07:38:38;;;;;;;20.88;14.35;;;;;;;;;;4956421;28;20035;-76
2022/11/30 07:41:04;;;;;;;15.98;14.32;;;;;;;;;;4964168;28;20473;-75
2022/11/30 07:43:33;;;;;;;20.77;15.68;;;;;;;;;;4958795;28;20030;-76
2022/11/30 07:46:01;;;;;;;22.88;16.00;;;;;;;;;;4960441;28;20027;-75
2022/11/30 07:48:27;;;;;;;23.17;18.25;;;;;;;;;;4954897;28;20027;-75
2022/11/30 07:50:53;;;;;;;33.13;19.30;;;;;;;;;;4952018;29;20367;-75
2022/11/30 07:53:23;;;;;;;28.23;18.45;;;;;;;;;;4948882;29;20047;-75
2022/11/30 07:55:51;;;;;;;23.45;17.58;;;;;;;;;;4954925;28;20027;-75
2022/11/30 07:58:17;;;;;;;25.38;18.92;;;;;;;;;;4955340;28;20042;-75
2022/11/30 08:00:43;;;;;;;23.52;18.98;;;;;;;;;;4950121;29;20401;-76
2022/11/30 08:03:11;;;;;;;20.50;16.92;;;;;;;;;;4954903;29;20034;-75
2022/11/30 08:05:40;;;;;;;21.95;16.63;;;;;;;;;;4952107;28;20019;-75
2022/11/30 08:08:06;;;;;;;27.55;20.02;;;;;;;;;;4956757;28;20559;-76
2022/11/30 08:10:34;;;;;;;24.63;17.20;;;;;;;;;;4950544;28;20034;-76
2022/11/30 08:13:03;;;;;;;22.58;16.92;;;;;;;;;;4953670;29;20031;-75
2022/11/30 08:15:36;;;;;;;22.25;18.02;;;;;;;;;;4951636;28;20031;-75
2022/11/30 08:18:07;;;;;;;23.13;16.80;;;;;;;;;;4960011;28;20477;-75
2022/11/30 08:20:33;;;;;;;28.13;18.85;;;;;;;;;;4960373;28;20070;-75
2022/11/30 08:22:59;;;;;;;26.27;17.95;;;;;;;;;;4932803;29;20066;-75
2022/11/30 08:25:24;;;;;;;30.10;21.23;;;;;;;;;;4953717;28;20283;-75
2022/11/30 08:27:55;;;;;;;20.55;17.00;;;;;;;;;;4948862;28;20367;-74
2022/11/30 08:30:25;;;;;;;29.53;20.00;;;;;;;;;;4958264;28;20511;-75
2022/11/30 08:32:53;;;;;;;30.33;19.63;;;;;;;;;;4961200;28;20287;-75
2022/11/30 08:35:21;;;;;;;33.70;24.40;;;;;;;;;;4954175;29;20023;-75
2022/11/30 08:37:47;;;;;;;29.45;22.83;;;;;;;;;;4953087;28;20382;-75
2022/11/30 08:40:18;;;;;;;20.10;17.92;;;;;;;;;;4958071;28;20509;-75
2022/11/30 08:42:46;;;;;;;20.10;15.85;;;;;;;;;;4951742;29;20036;-76
2022/11/30 08:45:14;;;;;;;24.10;19.63;;;;;;;;;;4948945;29;20398;-75
2022/11/30 08:47:43;;;;;;;22.80;18.92;;;;;;;;;;4948956;28;20026;-75
2022/11/30 08:50:09;;;;;;;22.60;17.42;;;;;;;;;;4959717;28;20042;-75
2022/11/30 08:52:37;;;;;;;19.15;16.40;;;;;;;;;;4922940;29;20040;-75
2022/11/30 08:55:03;;;;;;;22.08;17.10;;;;;;;;;;4951180;29;20493;-76
2022/11/30 08:57:30;;;;;;;18.80;15.93;;;;;;;;;;4934522;29;20043;-75
2022/11/30 08:59:55;;;;;;;25.42;17.60;;;;;;;;;;4957930;28;20046;-76
2022/11/30 09:02:24;;;;;;;19.38;17.17;;;;;;;;;;4947663;28;20027;-76
2022/11/30 09:04:52;;;;;;;22.30;16.27;;;;;;;;;;4936955;29;20031;-76
2022/11/30 09:07:21;;;;;;;21.08;15.95;;;;;;;;;;4950013;28;20031;-76
2022/11/30 09:09:47;;;;;;;21.67;16.27;;;;;;;;;;4958004;28;20031;-77
2022/11/30 09:12:15;;;;;;;20.42;15.48;;;;;;;;;;4951193;28;20054;-76
2022/11/30 09:14:44;;;;;;;20.85;16.92;;;;;;;;;;4951369;28;20375;-76
2022/11/30 09:17:17;;;;;;;22.83;17.40;;;;;;;;;;4949732;28;20040;-77
2022/11/30 09:19:45;;;;;;;18.88;15.40;;;;;;;;;;4948829;28;20032;-75
2022/11/30 09:22:11;;;;;;;16.65;13.88;;;;;;;;;;4958245;28;20024;-75
2022/11/30 09:24:37;;;;;;;22.60;15.00;;;;;;;;;;4958386;28;20031;-76
2022/11/30 09:27:05;;;;;;;19.13;15.95;;;;;;;;;;4935402;29;20038;-75
2022/11/30 09:29:31;;;;;;;20.45;13.73;;;;;;;;;;4942106;28;20035;-75
2022/11/30 09:31:57;;;;;;;19.27;14.45;;;;;;;;;;4947283;28;20042;-75
2022/11/30 09:34:25;;;;;;;22.15;16.02;;;;;;;;;;4961180;28;20038;-75
2022/11/30 09:36:51;;;;;;;19.08;13.48;;;;;;;;;;4941192;29;20051;-75
2022/11/30 09:39:19;;;;;;;18.63;16.10;;;;;;;;;;4928848;29;20307;-75
2022/11/30 09:41:47;;;;;;;18.23;16.25;;;;;;;;;;4928157;28;20034;-75
2022/11/30 09:44:29;;;;;;;19.70;14.30;;;;;;;;;;4954961;28;20401;-75
2022/11/30 09:47:06;;;;;;;19.42;14.38;;;;;;;;;;4951740;28;20035;-75
2022/11/30 09:49:38;;;;;;;17.92;12.73;;;;;;;;;;4950357;29;20031;-75
2022/11/30 09:52:10;;;;;;;17.45;10.85;;;;;;;;;;4955298;28;20042;-76
2022/11/30 09:54:43;;;;;;;16.58;12.63;;;;;;;;;;4962741;28;20031;-76
2022/11/30 09:57:15;;;;;;;18.40;12.32;;;;;;;;;;4951726;28;20370;-75
2022/11/30 09:59:46;;;;;;;15.40;12.85;;;;;;;;;;4946126;29;20050;-75
2022/11/30 10:02:16;;;;;;;14.05;12.57;;;;;;;;;;4956498;28;20023;-76
2022/11/30 10:04:44;;;;;;;13.63;10.70;;;;;;;;;;4949137;28;20027;-76
2022/11/30 10:07:15;;;;;;;14.85;12.98;;;;;;;;;;4959916;28;20027;-76
2022/11/30 10:09:41;;;;;;;16.00;11.55;;;;;;;;;;4950359;28;20046;-75
2022/11/30 10:12:12;;;;;;;17.55;12.65;;;;;;;;;;4952853;28;20450;-76
2022/11/30 10:14:50;;;;;;;18.52;14.80;;;;;;;;;;4961406;28;20038;-75
2022/11/30 10:17:32;;;;;;;15.95;13.18;;;;;;;;;;4931950;28;20036;-75
2022/11/30 10:20:07;;;;;;;15.18;11.43;;;;;;;;;;4950710;29;20039;-76
2022/11/30 10:22:56;;;;;;;16.88;13.43;;;;;;;;;;4939791;28;20035;-76
2022/11/30 10:25:23;;;;;;;16.02;11.73;;;;;;;;;;4952580;28;20544;-76
2022/11/30 10:27:53;;;;;;;18.08;12.63;;;;;;;;;;4953387;28;20024;-76
2022/11/30 10:30:22;;;;;;;16.98;13.85;;;;;;;;;;4952844;28;20494;-76
2022/11/30 10:32:53;;;;;;;17.85;13.55;;;;;;;;;;4946825;29;20032;-76
2022/11/30 10:35:37;;;;;;;16.27;14.55;;;;;;;;;;4951918;28;20046;-77
2022/11/30 10:38:10;;;;;;;12.85;10.60;;;;;;;;;;4959645;28;20031;-77
2022/11/30 10:40:39;;;;;;;17.20;13.48;;;;;;;;;;4948511;28;20031;-77
2022/11/30 10:43:18;;;;;;;20.42;14.07;;;;;;;;;;4950195;29;20032;-77
2022/11/30 10:45:47;;;;;;;18.83;12.15;;;;;;;;;;4951509;28;20031;-77
2022/11/30 10:48:15;;;;;;;13.93;11.68;;;;;;;;;;4958608;28;20038;-76
2022/11/30 10:50:41;;;;;;;16.92;12.75;;;;;;;;;;4954800;28;20047;-76
2022/11/30 10:53:14;;;;;;;15.35;10.23;;;;;;;;;;4954179;29;20023;-77
2022/11/30 10:55:49;;;;;;;19.88;12.73;;;;;;;;;;4954348;29;20034;-76
2022/11/30 10:58:31;;;;;;;17.75;14.25;;;;;;;;;;4934492;28;20098;-76
2022/11/30 11:01:03;;;;;;;18.85;14.90;;;;;;;;;;4955545;28;20034;-76
2022/11/30 11:03:36;;;;;;;13.23;10.98;;;;;;;;;;4955256;28;20023;-76
2022/11/30 11:06:04;;;;;;;15.93;12.38;;;;;;;;;;4951545;28;20032;-74
2022/11/30 11:08:32;;;;;;;17.73;10.88;;;;;;;;;;4953205;28;20034;-76
2022/11/30 11:11:00;;;;;;;16.02;13.63;;;;;;;;;;4959507;28;20058;-77
2022/11/30 11:13:38;;;;;;;16.70;12.23;;;;;;;;;;4961538;28;20027;-77
2022/11/30 11:16:08;;;;;;;14.50;11.43;;;;;;;;;;4955981;29;20424;-77
2022/11/30 11:18:37;;;;;;;17.50;11.90;;;;;;;;;;4954164;29;20023;-77
2022/11/30 11:21:04;;;;;;;19.65;12.90;;;;;;;;;;4953770;28;20023;-77
2022/11/30 11:23:37;;;;;;;13.32;11.93;;;;;;;;;;4951775;29;20402;-77
2022/11/30 11:26:19;;;;;;;15.77;10.48;;;;;;;;;;4955897;29;20035;-77
2022/11/30 11:28:47;;;;;;;15.90;11.13;;;;;;;;;;4954750;29;20036;-77
2022/11/30 11:31:31;;;;;;;15.63;11.50;;;;;;;;;;4955523;29;20031;-77
2022/11/30 11:34:02;;;;;;;17.58;13.45;;;;;;;;;;4953780;29;20043;-77
2022/11/30 11:36:31;;;;;;;20.42;13.40;;;;;;;;;;4952548;29;20042;-77
2022/11/30 11:39:02;;;;;;;12.32;10.18;;;;;;;;;;4951896;29;20040;-77
2022/11/30 11:41:30;;;;;;;15.60;12.30;;;;;;;;;;4945565;29;20490;-77
2022/11/30 11:43:58;;;;;;;14.43;11.45;;;;;;;;;;4950544;29;20039;-77
2022/11/30 11:46:26;;;;;;;14.32;11.30;;;;;;;;;;4954079;29;20042;-77
2022/11/30 11:49:06;;;;;;;22.15;13.40;;;;;;;;;;4954097;29;20043;-78
2022/11/30 11:51:36;;;;;;;17.90;14.18;;;;;;;;;;4950329;29;20039;-76
2022/11/30 11:54:20;;;;;;;15.38;12.57;;;;;;;;;;4934837;29;20027;-76
2022/11/30 11:56:49;;;;;;;18.42;12.07;;;;;;;;;;4945720;28;20047;-77
2022/11/30 11:59:18;;;;;;;20.77;12.18;;;;;;;;;;4937001;29;20043;-76
2022/11/30 12:01:51;;;;;;;17.45;12.68;;;;;;;;;;4936183;29;20042;-77
2022/11/30 12:04:58;;;;;;;21.10;15.32;;;;;;;;;;4955501;28;20379;-77
2022/11/30 12:07:44;;;;;;;21.55;15.07;;;;;;;;;;4930662;29;20027;-76
2022/11/30 12:10:28;;;;;;;18.23;12.98;;;;;;;;;;4915176;29;20091;-77
2022/11/30 12:12:57;;;;;;;18.63;15.68;;;;;;;;;;4943713;28;20339;-77
2022/11/30 12:15:31;;;;;;;17.83;14.30;;;;;;;;;;4952892;29;20031;-78
2022/11/30 12:18:06;;;;;;;19.88;15.07;;;;;;;;;;4949711;29;20046;-78
2022/11/30 12:20:35;;;;;;;21.30;13.60;;;;;;;;;;4934640;29;20046;-77
2022/11/30 12:23:18;;;;;;;20.08;13.10;;;;;;;;;;4952851;28;20036;-77
2022/11/30 12:25:44;;;;;;;;;;;;;;;;;;4951112;28;20035;-77
2022/11/30 12:28:38;;;;;;;19.80;13.80;;;;;;;;;;4952529;28;19910;-77
2022/11/30 12:31:19;;;;;;;18.60;14.15;;;;;;;;;;4963031;28;20051;-77
2022/11/30 12:34:00;;;;;;;16.88;12.48;;;;;;;;;;4953661;28;20043;-77
2022/11/30 12:36:33;;;;;;;17.45;12.35;;;;;;;;;;4951515;29;20038;-77
2022/11/30 12:39:14;;;;;;;21.35;13.52;;;;;;;;;;4953315;28;20035;-76
2022/11/30 12:41:42;;;;;;;17.27;12.48;;;;;;;;;;4952320;29;20023;-77
2022/11/30 12:44:30;;;;;;;18.15;13.68;;;;;;;;;;4974036;23;20043;-73
2022/11/30 12:47:09;;;;;;;18.90;13.07;;;;;;;;;;4939475;28;20482;-73
2022/11/30 12:49:51;;;;;;;15.60;12.15;;;;;;;;;;4945285;29;20377;-73
2022/11/30 12:52:31;;;;;;;19.67;13.85;;;;;;;;;;4942678;28;20039;-73
2022/11/30 12:55:17;;;;;;;15.80;13.40;;;;;;;;;;4958708;28;20038;-73
2022/11/30 12:58:04;;;;;;;19.80;14.85;;;;;;;;;;4961457;28;20058;-73
2022/11/30 13:00:38;;;;;;;19.58;15.65;;;;;;;;;;4958448;28;20023;-73
2022/11/30 13:03:23;;;;;;;23.77;15.02;;;;;;;;;;4972346;28;20375;-73
2022/11/30 13:05:56;;;;;;;19.23;13.48;;;;;;;;;;4953976;28;20035;-72
2022/11/30 13:08:27;;;;;;;16.80;13.38;;;;;;;;;;4968835;28;20038;-72
2022/11/30 13:11:00;;;;;;;18.60;13.18;;;;;;;;;;4969978;28;20473;-72
2022/11/30 13:13:30;;;;;;;17.02;13.55;;;;;;;;;;4968525;28;20023;-73
2022/11/30 13:15:58;;;;;;;18.73;14.85;;;;;;;;;;4936865;29;20498;-73
2022/11/30 13:18:24;;;;;;;18.35;11.75;;;;;;;;;;4966766;28;20042;-71
2022/11/30 13:20:50;;;;;;;17.05;13.00;;;;;;;;;;4972489;28;20039;-73
2022/11/30 13:23:26;;;;;;;15.40;12.13;;;;;;;;;;4970047;28;20027;-74
2022/11/30 13:25:52;;;;;;;;;;;;;;;;;;4959112;28;20041;-73
2022/11/30 13:28:25;;;;;;;19.92;13.55;;;;;;;;;;4967272;28;19918;-73
2022/11/30 13:31:25;;;;;;;15.52;12.50;;;;;;;;;;4971550;28;20050;-72
2022/11/30 13:33:54;;;;;;;19.60;14.30;;;;;;;;;;4946495;28;20516;-73
2022/11/30 13:36:21;;;;;;;17.63;12.90;;;;;;;;;;4971494;28;20039;-74
2022/11/30 13:39:08;;;;;;;13.40;11.82;;;;;;;;;;4972051;28;20038;-72
2022/11/30 13:41:34;;;;;;;18.20;13.95;;;;;;;;;;4968240;28;20030;-73
2022/11/30 13:44:01;;;;;;;24.55;13.43;;;;;;;;;;4962851;28;20035;-73
2022/11/30 13:46:27;;;;;;;23.42;16.33;;;;;;;;;;4967186;28;20035;-73
2022/11/30 13:49:17;;;;;;;20.95;12.73;;;;;;;;;;4962147;28;20473;-72
2022/11/30 13:51:45;;;;;;;20.00;13.55;;;;;;;;;;4970602;28;20026;-73
2022/11/30 13:54:30;;;;;;;20.30;14.75;;;;;;;;;;4970929;28;20062;-73
2022/11/30 13:56:56;;;;;;;18.35;15.68;;;;;;;;;;4968274;28;20058;-72
2022/11/30 13:59:24;;;;;;;17.15;13.30;;;;;;;;;;4965152;28;20034;-72
2022/11/30 14:02:12;;;;;;;19.92;13.93;;;;;;;;;;4963544;28;20054;-73
2022/11/30 14:04:46;;;;;;;24.08;16.00;;;;;;;;;;4953328;28;20027;-73
2022/11/30 14:07:33;;;;;;;21.17;15.70;;;;;;;;;;4954802;28;20042;-73
2022/11/30 14:10:02;;;;;;;19.52;16.90;;;;;;;;;;4958998;28;20062;-73
2022/11/30 14:12:31;;;;;;;26.63;16.02;;;;;;;;;;4956097;28;20027;-73
2022/11/30 14:15:00;;;;;;;20.13;15.32;;;;;;;;;;4969964;28;20039;-73
2022/11/30 14:17:27;;;;;;;21.08;13.45;;;;;;;;;;4967096;28;20385;-72
2022/11/30 14:19:57;;;;;;;24.98;15.75;;;;;;;;;;4968695;28;20481;-74
2022/11/30 14:22:27;;;;;;;18.55;14.40;;;;;;;;;;4969777;28;20031;-73
2022/11/30 14:24:54;;;;;;;23.65;16.30;;;;;;;;;;4972637;28;20047;-73
2022/11/30 14:27:22;;;;;;;19.73;15.75;;;;;;;;;;4963404;28;20405;-72
2022/11/30 14:29:52;;;;;;;22.73;15.80;;;;;;;;;;4967269;28;20035;-72
2022/11/30 14:32:32;;;;;;;22.90;15.52;;;;;;;;;;4936498;29;20043;-73
2022/11/30 14:35:02;;;;;;;19.60;13.93;;;;;;;;;;4966192;28;20035;-73
2022/11/30 14:37:32;;;;;;;18.52;13.00;;;;;;;;;;4974835;28;20389;-73